sensor_id;sensor_type;location;lat;lon;timestamp;temperature;humidity
31639;DHT22;18248;51.522;7.020;2023-06-19T00:00:05;25.50;81.00
31639;DHT22;18248;51.522;7.020;2023-06-19T00:03:11;25.50;81.40
31639;DHT22;18248;51.522;7.020;2023-06-19T00:06:09;25.50;81.50
31639;DHT22;18248;51.522;7.020;2023-06-19T00:09:10;25.50;82.00
31639;DHT22;18248;51.522;7.020;2023-06-19T00:12:09;25.40;82.80
31639;DHT22;18248;51.522;7.020;2023-06-19T00:15:08;25.40;83.50
31639;DHT22;18248;51.522;7.020;2023-06-19T00:18:08;25.40;84.60
31639;DHT22;18248;51.522;7.020;2023-06-19T00:21:07;25.40;84.20
31639;DHT22;18248;51.522;7.020;2023-06-19T00:24:06;25.30;85.90
31639;DHT22;18248;51.522;7.020;2023-06-19T00:27:05;25.20;86.60
31639;DHT22;18248;51.522;7.020;2023-06-19T00:30:05;25.20;87.70
31639;DHT22;18248;51.522;7.020;2023-06-19T00:33:05;25.10;89.10
31639;DHT22;18248;51.522;7.020;2023-06-19T00:36:12;25.00;89.80
31639;DHT22;18248;51.522;7.020;2023-06-19T00:39:11;25.00;90.60
31639;DHT22;18248;51.522;7.020;2023-06-19T00:42:09;24.90;90.60
31639;DHT22;18248;51.522;7.020;2023-06-19T00:45:08;24.90;91.20
31639;DHT22;18248;51.522;7.020;2023-06-19T00:48:08;24.80;91.60
31639;DHT22;18248;51.522;7.020;2023-06-19T00:51:07;24.80;92.10
31639;DHT22;18248;51.522;7.020;2023-06-19T00:54:06;24.70;92.40
31639;DHT22;18248;51.522;7.020;2023-06-19T00:57:05;24.60;93.10
31639;DHT22;18248;51.522;7.020;2023-06-19T01:00:04;24.60;93.60
31639;DHT22;18248;51.522;7.020;2023-06-19T01:03:03;24.50;94.30
31639;DHT22;18248;51.522;7.020;2023-06-19T01:06:02;24.50;94.90
31639;DHT22;18248;51.522;7.020;2023-06-19T01:09:09;24.40;95.30
31639;DHT22;18248;51.522;7.020;2023-06-19T01:12:14;24.40;95.80
31639;DHT22;18248;51.522;7.020;2023-06-19T01:15:14;24.40;96.40
31639;DHT22;18248;51.522;7.020;2023-06-19T01:18:13;24.40;96.80
31639;DHT22;18248;51.522;7.020;2023-06-19T01:21:17;24.40;97.00
31639;DHT22;18248;51.522;7.020;2023-06-19T01:24:16;24.30;97.20
31639;DHT22;18248;51.522;7.020;2023-06-19T01:27:15;24.30;97.80
31639;DHT22;18248;51.522;7.020;2023-06-19T01:30:15;24.30;98.10
31639;DHT22;18248;51.522;7.020;2023-06-19T01:33:23;24.30;98.20
31639;DHT22;18248;51.522;7.020;2023-06-19T01:36:24;24.20;99.10
31639;DHT22;18248;51.522;7.020;2023-06-19T01:39:24;24.20;99.40
31639;DHT22;18248;51.522;7.020;2023-06-19T01:42:25;24.10;99.90
31639;DHT22;18248;51.522;7.020;2023-06-19T01:45:24;24.10;99.90
31639;DHT22;18248;51.522;7.020;2023-06-19T01:48:23;24.00;99.90
31639;DHT22;18248;51.522;7.020;2023-06-19T01:51:22;23.90;99.90
31639;DHT22;18248;51.522;7.020;2023-06-19T01:54:20;23.90;99.90
31639;DHT22;18248;51.522;7.020;2023-06-19T01:57:19;23.90;99.90
31639;DHT22;18248;51.522;7.020;2023-06-19T02:00:18;23.80;99.90
31639;DHT22;18248;51.522;7.020;2023-06-19T02:03:17;23.80;99.90
31639;DHT22;18248;51.522;7.020;2023-06-19T02:06:15;23.70;99.90
31639;DHT22;18248;51.522;7.020;2023-06-19T02:09:14;23.70;99.90
31639;DHT22;18248;51.522;7.020;2023-06-19T02:12:12;23.70;99.90
31639;DHT22;18248;51.522;7.020;2023-06-19T02:15:11;23.60;99.90
31639;DHT22;18248;51.522;7.020;2023-06-19T02:18:09;23.60;99.90
31639;DHT22;18248;51.522;7.020;2023-06-19T02:21:08;23.50;99.90
31639;DHT22;18248;51.522;7.020;2023-06-19T02:24:07;23.50;99.90
31639;DHT22;18248;51.522;7.020;2023-06-19T02:27:06;23.40;99.90
31639;DHT22;18248;51.522;7.020;2023-06-19T02:30:05;23.40;99.90
31639;DHT22;18248;51.522;7.020;2023-06-19T02:33:04;23.30;99.90
31639;DHT22;18248;51.522;7.020;2023-06-19T02:36:03;23.20;99.90
31639;DHT22;18248;51.522;7.020;2023-06-19T02:39:05;23.20;99.90
31639;DHT22;18248;51.522;7.020;2023-06-19T02:42:05;23.10;99.90
31639;DHT22;18248;51.522;7.020;2023-06-19T02:45:04;23.10;99.90
31639;DHT22;18248;51.522;7.020;2023-06-19T02:48:04;23.10;99.90
31639;DHT22;18248;51.522;7.020;2023-06-19T02:51:03;23.00;99.90
31639;DHT22;18248;51.522;7.020;2023-06-19T02:54:01;23.00;99.90
31639;DHT22;18248;51.522;7.020;2023-06-19T02:57:00;23.10;99.90
31639;DHT22;18248;51.522;7.020;2023-06-19T02:59:59;23.10;99.90
31639;DHT22;18248;51.522;7.020;2023-06-19T03:02:57;23.10;99.90
31639;DHT22;18248;51.522;7.020;2023-06-19T03:05:56;23.20;99.90
31639;DHT22;18248;51.522;7.020;2023-06-19T03:08:54;23.20;99.90
31639;DHT22;18248;51.522;7.020;2023-06-19T03:11:53;23.20;99.90
31639;DHT22;18248;51.522;7.020;2023-06-19T03:14:52;23.30;99.90
31639;DHT22;18248;51.522;7.020;2023-06-19T03:17:52;23.30;99.90
31639;DHT22;18248;51.522;7.020;2023-06-19T03:20:50;23.30;99.90
31639;DHT22;18248;51.522;7.020;2023-06-19T03:23:50;23.30;99.90
31639;DHT22;18248;51.522;7.020;2023-06-19T03:26:49;23.20;99.90
31639;DHT22;18248;51.522;7.020;2023-06-19T03:29:47;23.30;99.90
31639;DHT22;18248;51.522;7.020;2023-06-19T03:32:46;23.20;99.90
31639;DHT22;18248;51.522;7.020;2023-06-19T03:35:44;23.20;99.90
31639;DHT22;18248;51.522;7.020;2023-06-19T03:38:43;23.20;99.90
31639;DHT22;18248;51.522;7.020;2023-06-19T03:41:42;23.20;99.90
31639;DHT22;18248;51.522;7.020;2023-06-19T03:44:41;23.20;99.90
31639;DHT22;18248;51.522;7.020;2023-06-19T03:47:40;23.20;99.90
31639;DHT22;18248;51.522;7.020;2023-06-19T03:50:39;23.20;99.90
31639;DHT22;18248;51.522;7.020;2023-06-19T03:53:37;23.20;99.90
31639;DHT22;18248;51.522;7.020;2023-06-19T03:56:36;23.10;99.90
31639;DHT22;18248;51.522;7.020;2023-06-19T03:59:34;23.10;99.90
31639;DHT22;18248;51.522;7.020;2023-06-19T04:02:33;23.10;99.90
31639;DHT22;18248;51.522;7.020;2023-06-19T04:05:32;23.20;99.90
31639;DHT22;18248;51.522;7.020;2023-06-19T04:08:32;23.10;99.90
31639;DHT22;18248;51.522;7.020;2023-06-19T04:11:31;23.10;99.90
31639;DHT22;18248;51.522;7.020;2023-06-19T04:14:30;23.10;99.90
31639;DHT22;18248;51.522;7.020;2023-06-19T04:17:28;23.10;99.90
31639;DHT22;18248;51.522;7.020;2023-06-19T04:20:27;23.10;99.90
31639;DHT22;18248;51.522;7.020;2023-06-19T04:23:25;23.00;99.90
31639;DHT22;18248;51.522;7.020;2023-06-19T04:26:25;23.00;99.90
31639;DHT22;18248;51.522;7.020;2023-06-19T04:29:24;23.00;99.90
31639;DHT22;18248;51.522;7.020;2023-06-19T04:32:22;23.00;99.90
31639;DHT22;18248;51.522;7.020;2023-06-19T04:35:21;23.00;99.90
31639;DHT22;18248;51.522;7.020;2023-06-19T04:38:22;23.00;99.90
31639;DHT22;18248;51.522;7.020;2023-06-19T04:41:22;23.00;99.90
31639;DHT22;18248;51.522;7.020;2023-06-19T04:44:20;22.90;99.90
31639;DHT22;18248;51.522;7.020;2023-06-19T04:47:21;22.90;99.90
31639;DHT22;18248;51.522;7.020;2023-06-19T04:50:21;22.80;99.90
31639;DHT22;18248;51.522;7.020;2023-06-19T04:53:19;22.80;99.90
31639;DHT22;18248;51.522;7.020;2023-06-19T04:56:18;22.90;99.90
31639;DHT22;18248;51.522;7.020;2023-06-19T04:59:16;22.90;99.90
31639;DHT22;18248;51.522;7.020;2023-06-19T05:02:16;23.30;99.90
31639;DHT22;18248;51.522;7.020;2023-06-19T05:05:15;23.80;99.90
31639;DHT22;18248;51.522;7.020;2023-06-19T05:08:14;24.40;99.90
31639;DHT22;18248;51.522;7.020;2023-06-19T05:11:12;25.00;99.90
31639;DHT22;18248;51.522;7.020;2023-06-19T05:14:11;25.80;99.90
31639;DHT22;18248;51.522;7.020;2023-06-19T05:17:12;26.60;99.90
31639;DHT22;18248;51.522;7.020;2023-06-19T05:20:11;26.90;99.90
31639;DHT22;18248;51.522;7.020;2023-06-19T05:23:10;27.40;99.90
31639;DHT22;18248;51.522;7.020;2023-06-19T05:26:09;27.40;99.90
31639;DHT22;18248;51.522;7.020;2023-06-19T05:29:07;27.40;99.90
31639;DHT22;18248;51.522;7.020;2023-06-19T05:32:07;26.90;99.90
31639;DHT22;18248;51.522;7.020;2023-06-19T05:35:06;26.30;99.90
31639;DHT22;18248;51.522;7.020;2023-06-19T05:38:04;25.70;99.90
31639;DHT22;18248;51.522;7.020;2023-06-19T05:41:03;25.40;99.90
31639;DHT22;18248;51.522;7.020;2023-06-19T05:44:02;25.10;99.90
31639;DHT22;18248;51.522;7.020;2023-06-19T05:47:01;24.80;99.90
31639;DHT22;18248;51.522;7.020;2023-06-19T05:49:59;24.60;99.90
31639;DHT22;18248;51.522;7.020;2023-06-19T05:52:58;24.50;99.90
31639;DHT22;18248;51.522;7.020;2023-06-19T05:55:56;24.30;99.90
31639;DHT22;18248;51.522;7.020;2023-06-19T05:58:56;24.10;99.90
31639;DHT22;18248;51.522;7.020;2023-06-19T06:01:55;23.90;99.90
31639;DHT22;18248;51.522;7.020;2023-06-19T06:04:54;23.70;99.90
31639;DHT22;18248;51.522;7.020;2023-06-19T06:07:53;23.60;99.90
31639;DHT22;18248;51.522;7.020;2023-06-19T06:10:52;23.50;99.90
31639;DHT22;18248;51.522;7.020;2023-06-19T06:13:50;23.50;99.90
31639;DHT22;18248;51.522;7.020;2023-06-19T06:16:49;23.50;99.90
31639;DHT22;18248;51.522;7.020;2023-06-19T06:19:47;23.40;99.90
31639;DHT22;18248;51.522;7.020;2023-06-19T06:22:46;23.30;99.90
31639;DHT22;18248;51.522;7.020;2023-06-19T06:25:44;23.20;99.90
31639;DHT22;18248;51.522;7.020;2023-06-19T06:28:44;23.00;99.90
31639;DHT22;18248;51.522;7.020;2023-06-19T06:31:46;23.00;99.90
31639;DHT22;18248;51.522;7.020;2023-06-19T06:34:45;23.00;99.90
31639;DHT22;18248;51.522;7.020;2023-06-19T06:37:43;23.10;99.90
31639;DHT22;18248;51.522;7.020;2023-06-19T06:40:44;23.10;99.90
31639;DHT22;18248;51.522;7.020;2023-06-19T06:43:42;23.10;99.90
31639;DHT22;18248;51.522;7.020;2023-06-19T06:46:41;23.00;99.90
31639;DHT22;18248;51.522;7.020;2023-06-19T06:49:40;23.00;99.90
31639;DHT22;18248;51.522;7.020;2023-06-19T06:52:38;23.10;99.90
31639;DHT22;18248;51.522;7.020;2023-06-19T06:55:37;23.10;99.90
31639;DHT22;18248;51.522;7.020;2023-06-19T06:58:35;23.10;99.90
31639;DHT22;18248;51.522;7.020;2023-06-19T07:01:35;23.00;99.90
31639;DHT22;18248;51.522;7.020;2023-06-19T07:04:34;23.10;99.90
31639;DHT22;18248;51.522;7.020;2023-06-19T07:07:32;23.10;99.90
31639;DHT22;18248;51.522;7.020;2023-06-19T07:10:31;23.00;99.90
31639;DHT22;18248;51.522;7.020;2023-06-19T07:13:30;23.00;99.90
31639;DHT22;18248;51.522;7.020;2023-06-19T07:16:28;23.00;99.90
31639;DHT22;18248;51.522;7.020;2023-06-19T07:19:27;23.10;99.90
31639;DHT22;18248;51.522;7.020;2023-06-19T07:22:25;23.00;99.90
31639;DHT22;18248;51.522;7.020;2023-06-19T07:25:24;23.00;99.90
31639;DHT22;18248;51.522;7.020;2023-06-19T07:28:23;22.90;99.90
31639;DHT22;18248;51.522;7.020;2023-06-19T07:31:22;22.90;99.90
31639;DHT22;18248;51.522;7.020;2023-06-19T07:34:20;22.80;99.90
31639;DHT22;18248;51.522;7.020;2023-06-19T07:37:20;22.90;99.90
31639;DHT22;18248;51.522;7.020;2023-06-19T07:40:20;23.00;99.90
31639;DHT22;18248;51.522;7.020;2023-06-19T07:43:19;23.00;99.90
31639;DHT22;18248;51.522;7.020;2023-06-19T07:46:20;23.10;99.90
31639;DHT22;18248;51.522;7.020;2023-06-19T07:49:19;23.00;99.90
31639;DHT22;18248;51.522;7.020;2023-06-19T07:52:17;22.80;99.90
31639;DHT22;18248;51.522;7.020;2023-06-19T07:55:16;22.70;99.90
31639;DHT22;18248;51.522;7.020;2023-06-19T07:58:14;22.80;99.90
31639;DHT22;18248;51.522;7.020;2023-06-19T08:01:13;22.90;99.90
31639;DHT22;18248;51.522;7.020;2023-06-19T08:04:11;23.00;99.90
31639;DHT22;18248;51.522;7.020;2023-06-19T08:07:10;23.10;99.90
31639;DHT22;18248;51.522;7.020;2023-06-19T08:10:09;23.20;99.90
31639;DHT22;18248;51.522;7.020;2023-06-19T08:13:09;23.40;99.90
31639;DHT22;18248;51.522;7.020;2023-06-19T08:16:10;23.50;99.90
31639;DHT22;18248;51.522;7.020;2023-06-19T08:19:08;23.60;99.90
31639;DHT22;18248;51.522;7.020;2023-06-19T08:22:09;23.50;99.90
31639;DHT22;18248;51.522;7.020;2023-06-19T08:25:07;23.40;99.90
31639;DHT22;18248;51.522;7.020;2023-06-19T08:28:06;23.50;99.90
31639;DHT22;18248;51.522;7.020;2023-06-19T08:31:05;23.40;99.90
31639;DHT22;18248;51.522;7.020;2023-06-19T08:34:03;23.50;99.90
31639;DHT22;18248;51.522;7.020;2023-06-19T08:37:06;24.30;99.90
31639;DHT22;18248;51.522;7.020;2023-06-19T08:40:05;24.90;99.90
31639;DHT22;18248;51.522;7.020;2023-06-19T08:43:07;25.50;99.90
31639;DHT22;18248;51.522;7.020;2023-06-19T08:46:18;26.10;99.90
31639;DHT22;18248;51.522;7.020;2023-06-19T08:49:16;26.70;99.90
31639;DHT22;18248;51.522;7.020;2023-06-19T08:52:15;27.30;99.90
31639;DHT22;18248;51.522;7.020;2023-06-19T08:55:14;27.60;99.90
31639;DHT22;18248;51.522;7.020;2023-06-19T08:58:23;27.30;99.90
31639;DHT22;18248;51.522;7.020;2023-06-19T09:01:22;27.20;99.90
31639;DHT22;18248;51.522;7.020;2023-06-19T09:04:25;27.50;99.90
31639;DHT22;18248;51.522;7.020;2023-06-19T09:07:29;27.30;99.90
31639;DHT22;18248;51.522;7.020;2023-06-19T09:10:28;26.80;99.90
31639;DHT22;18248;51.522;7.020;2023-06-19T09:13:27;26.50;99.90
31639;DHT22;18248;51.522;7.020;2023-06-19T09:16:41;26.20;99.90
31639;DHT22;18248;51.522;7.020;2023-06-19T09:19:48;26.30;99.90
31639;DHT22;18248;51.522;7.020;2023-06-19T09:22:46;26.60;99.90
31639;DHT22;18248;51.522;7.020;2023-06-19T09:25:53;26.70;99.90
31639;DHT22;18248;51.522;7.020;2023-06-19T09:28:55;26.60;99.90
31639;DHT22;18248;51.522;7.020;2023-06-19T09:31:53;26.60;99.90
31639;DHT22;18248;51.522;7.020;2023-06-19T09:34:56;26.60;99.90
31639;DHT22;18248;51.522;7.020;2023-06-19T09:37:58;26.70;99.90
31639;DHT22;18248;51.522;7.020;2023-06-19T09:41:01;26.80;99.90
31639;DHT22;18248;51.522;7.020;2023-06-19T09:44:01;26.70;99.90
31639;DHT22;18248;51.522;7.020;2023-06-19T09:47:05;26.70;99.90
31639;DHT22;18248;51.522;7.020;2023-06-19T09:50:07;26.70;99.90
31639;DHT22;18248;51.522;7.020;2023-06-19T09:53:07;26.80;99.90
31639;DHT22;18248;51.522;7.020;2023-06-19T09:56:05;27.10;99.90
31639;DHT22;18248;51.522;7.020;2023-06-19T09:59:08;27.30;99.90
31639;DHT22;18248;51.522;7.020;2023-06-19T10:02:08;27.30;99.90
31639;DHT22;18248;51.522;7.020;2023-06-19T10:05:11;27.00;99.90
31639;DHT22;18248;51.522;7.020;2023-06-19T10:08:12;26.90;99.90
31639;DHT22;18248;51.522;7.020;2023-06-19T10:11:11;27.00;99.90
31639;DHT22;18248;51.522;7.020;2023-06-19T10:14:10;27.10;99.90
31639;DHT22;18248;51.522;7.020;2023-06-19T10:17:09;27.30;99.90
31639;DHT22;18248;51.522;7.020;2023-06-19T10:20:31;27.50;99.90
31639;DHT22;18248;51.522;7.020;2023-06-19T10:23:35;27.80;99.90
31639;DHT22;18248;51.522;7.020;2023-06-19T10:26:35;28.10;99.90
31639;DHT22;18248;51.522;7.020;2023-06-19T10:29:40;28.20;99.90
31639;DHT22;18248;51.522;7.020;2023-06-19T10:32:39;28.20;99.90
31639;DHT22;18248;51.522;7.020;2023-06-19T10:35:39;27.90;99.90
31639;DHT22;18248;51.522;7.020;2023-06-19T10:38:40;27.80;99.90
31639;DHT22;18248;51.522;7.020;2023-06-19T10:41:40;27.90;99.90
31639;DHT22;18248;51.522;7.020;2023-06-19T10:44:38;27.90;99.90
31639;DHT22;18248;51.522;7.020;2023-06-19T10:47:38;28.00;99.90
31639;DHT22;18248;51.522;7.020;2023-06-19T10:50:38;28.40;99.90
31639;DHT22;18248;51.522;7.020;2023-06-19T10:53:40;28.50;99.90
31639;DHT22;18248;51.522;7.020;2023-06-19T10:56:38;28.70;99.90
31639;DHT22;18248;51.522;7.020;2023-06-19T10:59:37;28.70;99.90
31639;DHT22;18248;51.522;7.020;2023-06-19T11:02:39;28.90;99.90
31639;DHT22;18248;51.522;7.020;2023-06-19T11:05:43;29.20;99.90
31639;DHT22;18248;51.522;7.020;2023-06-19T11:08:51;29.30;99.80
31639;DHT22;18248;51.522;7.020;2023-06-19T11:11:49;29.00;98.20
31639;DHT22;18248;51.522;7.020;2023-06-19T11:14:49;29.10;98.50
31639;DHT22;18248;51.522;7.020;2023-06-19T11:17:48;29.10;98.00
31639;DHT22;18248;51.522;7.020;2023-06-19T11:20:50;29.10;97.40
31639;DHT22;18248;51.522;7.020;2023-06-19T11:23:49;29.20;97.50
31639;DHT22;18248;51.522;7.020;2023-06-19T11:26:49;29.60;96.50
31639;DHT22;18248;51.522;7.020;2023-06-19T11:29:47;29.50;96.70
31639;DHT22;18248;51.522;7.020;2023-06-19T11:32:46;29.70;95.60
31639;DHT22;18248;51.522;7.020;2023-06-19T11:35:50;29.60;94.50
31639;DHT22;18248;51.522;7.020;2023-06-19T11:38:49;29.80;94.70
31639;DHT22;18248;51.522;7.020;2023-06-19T11:41:47;30.20;94.20
31639;DHT22;18248;51.522;7.020;2023-06-19T11:44:54;30.40;92.40
31639;DHT22;18248;51.522;7.020;2023-06-19T11:47:54;30.40;91.20
31639;DHT22;18248;51.522;7.020;2023-06-19T11:50:53;30.10;90.90
31639;DHT22;18248;51.522;7.020;2023-06-19T11:53:53;30.10;90.70
31639;DHT22;18248;51.522;7.020;2023-06-19T11:56:51;29.90;89.70
31639;DHT22;18248;51.522;7.020;2023-06-19T11:59:50;29.90;89.30
31639;DHT22;18248;51.522;7.020;2023-06-19T12:02:48;30.30;90.40
31639;DHT22;18248;51.522;7.020;2023-06-19T12:05:47;30.60;88.30
31639;DHT22;18248;51.522;7.020;2023-06-19T12:08:45;30.60;87.80
31639;DHT22;18248;51.522;7.020;2023-06-19T12:11:44;30.70;87.00
31639;DHT22;18248;51.522;7.020;2023-06-19T12:14:42;30.60;85.80
31639;DHT22;18248;51.522;7.020;2023-06-19T12:17:42;30.60;84.80
31639;DHT22;18248;51.522;7.020;2023-06-19T12:20:41;30.80;82.80
31639;DHT22;18248;51.522;7.020;2023-06-19T12:23:41;31.00;82.20
31639;DHT22;18248;51.522;7.020;2023-06-19T12:26:40;30.90;78.60
31639;DHT22;18248;51.522;7.020;2023-06-19T12:29:38;30.70;80.60
31639;DHT22;18248;51.522;7.020;2023-06-19T12:32:37;30.60;82.30
31639;DHT22;18248;51.522;7.020;2023-06-19T12:35:40;30.80;81.20
31639;DHT22;18248;51.522;7.020;2023-06-19T12:38:40;30.70;82.00
31639;DHT22;18248;51.522;7.020;2023-06-19T12:41:38;30.70;81.20
31639;DHT22;18248;51.522;7.020;2023-06-19T12:44:40;30.60;80.10
31639;DHT22;18248;51.522;7.020;2023-06-19T12:47:39;30.70;79.70
31639;DHT22;18248;51.522;7.020;2023-06-19T12:50:38;30.60;78.60
31639;DHT22;18248;51.522;7.020;2023-06-19T12:53:39;30.60;78.90
31639;DHT22;18248;51.522;7.020;2023-06-19T12:56:38;30.60;79.90
31639;DHT22;18248;51.522;7.020;2023-06-19T12:59:36;30.80;78.70
31639;DHT22;18248;51.522;7.020;2023-06-19T13:02:35;30.70;78.30
31639;DHT22;18248;51.522;7.020;2023-06-19T13:05:33;30.50;78.50
31639;DHT22;18248;51.522;7.020;2023-06-19T13:08:32;30.40;78.20
31639;DHT22;18248;51.522;7.020;2023-06-19T13:11:31;30.30;77.50
31639;DHT22;18248;51.522;7.020;2023-06-19T13:14:30;30.60;76.90
31639;DHT22;18248;51.522;7.020;2023-06-19T13:17:30;30.80;75.30
31639;DHT22;18248;51.522;7.020;2023-06-19T13:20:29;31.20;75.30
31639;DHT22;18248;51.522;7.020;2023-06-19T13:23:28;31.40;72.40
31639;DHT22;18248;51.522;7.020;2023-06-19T13:26:26;31.50;74.60
31639;DHT22;18248;51.522;7.020;2023-06-19T13:29:25;31.60;72.00
31639;DHT22;18248;51.522;7.020;2023-06-19T13:32:25;31.60;71.20
31639;DHT22;18248;51.522;7.020;2023-06-19T13:35:23;31.90;71.90
31639;DHT22;18248;51.522;7.020;2023-06-19T13:38:22;31.90;71.70
31639;DHT22;18248;51.522;7.020;2023-06-19T13:41:20;32.00;69.90
31639;DHT22;18248;51.522;7.020;2023-06-19T13:44:23;32.20;70.90
31639;DHT22;18248;51.522;7.020;2023-06-19T13:47:21;32.30;70.40
31639;DHT22;18248;51.522;7.020;2023-06-19T13:50:20;32.20;70.40
31639;DHT22;18248;51.522;7.020;2023-06-19T13:53:18;32.20;70.20
31639;DHT22;18248;51.522;7.020;2023-06-19T13:56:18;32.30;69.20
31639;DHT22;18248;51.522;7.020;2023-06-19T13:59:16;32.50;68.80
31639;DHT22;18248;51.522;7.020;2023-06-19T14:02:16;32.50;67.50
31639;DHT22;18248;51.522;7.020;2023-06-19T14:05:16;32.40;66.50
31639;DHT22;18248;51.522;7.020;2023-06-19T14:08:14;32.20;67.20
31639;DHT22;18248;51.522;7.020;2023-06-19T14:11:13;31.90;67.50
31639;DHT22;18248;51.522;7.020;2023-06-19T14:14:12;32.00;67.10
31639;DHT22;18248;51.522;7.020;2023-06-19T14:17:10;32.00;67.70
31639;DHT22;18248;51.522;7.020;2023-06-19T14:20:11;32.10;67.10
31639;DHT22;18248;51.522;7.020;2023-06-19T14:23:10;32.20;66.80
31639;DHT22;18248;51.522;7.020;2023-06-19T14:26:11;32.40;66.70
31639;DHT22;18248;51.522;7.020;2023-06-19T14:29:10;32.20;65.80
31639;DHT22;18248;51.522;7.020;2023-06-19T14:32:09;32.00;66.30
31639;DHT22;18248;51.522;7.020;2023-06-19T14:35:08;32.20;66.20
31639;DHT22;18248;51.522;7.020;2023-06-19T14:38:06;32.10;65.70
31639;DHT22;18248;51.522;7.020;2023-06-19T14:41:06;32.20;65.70
31639;DHT22;18248;51.522;7.020;2023-06-19T14:44:05;32.40;65.80
31639;DHT22;18248;51.522;7.020;2023-06-19T14:47:04;32.50;64.90
31639;DHT22;18248;51.522;7.020;2023-06-19T14:50:04;32.50;65.60
31639;DHT22;18248;51.522;7.020;2023-06-19T14:53:03;32.50;65.00
31639;DHT22;18248;51.522;7.020;2023-06-19T14:56:02;32.50;65.40
31639;DHT22;18248;51.522;7.020;2023-06-19T14:59:00;32.50;64.70
31639;DHT22;18248;51.522;7.020;2023-06-19T15:01:59;32.60;65.50
31639;DHT22;18248;51.522;7.020;2023-06-19T15:04:58;32.70;65.10
31639;DHT22;18248;51.522;7.020;2023-06-19T15:07:56;32.80;65.20
31639;DHT22;18248;51.522;7.020;2023-06-19T15:10:54;33.10;64.40
31639;DHT22;18248;51.522;7.020;2023-06-19T15:13:53;33.20;64.50
31639;DHT22;18248;51.522;7.020;2023-06-19T15:16:52;33.20;63.40
31639;DHT22;18248;51.522;7.020;2023-06-19T15:19:50;33.20;62.30
31639;DHT22;18248;51.522;7.020;2023-06-19T15:22:49;33.00;62.30
31639;DHT22;18248;51.522;7.020;2023-06-19T15:25:48;32.80;63.10
31639;DHT22;18248;51.522;7.020;2023-06-19T15:28:47;32.60;62.90
31639;DHT22;18248;51.522;7.020;2023-06-19T15:31:46;32.40;64.40
31639;DHT22;18248;51.522;7.020;2023-06-19T15:34:44;32.30;64.10
31639;DHT22;18248;51.522;7.020;2023-06-19T15:37:44;32.30;64.80
31639;DHT22;18248;51.522;7.020;2023-06-19T15:40:43;32.50;64.00
31639;DHT22;18248;51.522;7.020;2023-06-19T15:43:42;32.40;64.60
31639;DHT22;18248;51.522;7.020;2023-06-19T15:46:40;32.40;62.90
31639;DHT22;18248;51.522;7.020;2023-06-19T15:49:39;32.40;64.70
31639;DHT22;18248;51.522;7.020;2023-06-19T15:52:37;32.60;65.10
31639;DHT22;18248;51.522;7.020;2023-06-19T15:55:36;32.60;64.50
31639;DHT22;18248;51.522;7.020;2023-06-19T15:58:36;32.70;64.30
31639;DHT22;18248;51.522;7.020;2023-06-19T16:01:35;32.70;63.80
31639;DHT22;18248;51.522;7.020;2023-06-19T16:04:33;32.60;62.20
31639;DHT22;18248;51.522;7.020;2023-06-19T16:07:32;32.60;63.30
31639;DHT22;18248;51.522;7.020;2023-06-19T16:10:30;32.70;62.40
31639;DHT22;18248;51.522;7.020;2023-06-19T16:13:29;32.80;62.20
31639;DHT22;18248;51.522;7.020;2023-06-19T16:16:27;32.80;61.70
31639;DHT22;18248;51.522;7.020;2023-06-19T16:19:26;32.70;61.30
31639;DHT22;18248;51.522;7.020;2023-06-19T16:22:24;32.70;60.90
31639;DHT22;18248;51.522;7.020;2023-06-19T16:25:23;32.80;61.40
31639;DHT22;18248;51.522;7.020;2023-06-19T16:28:23;32.90;60.60
31639;DHT22;18248;51.522;7.020;2023-06-19T16:31:21;32.90;62.30
31639;DHT22;18248;51.522;7.020;2023-06-19T16:34:22;32.80;61.30
31639;DHT22;18248;51.522;7.020;2023-06-19T16:37:20;32.90;61.60
31639;DHT22;18248;51.522;7.020;2023-06-19T16:40:20;33.00;61.00
31639;DHT22;18248;51.522;7.020;2023-06-19T16:43:19;33.10;60.70
31639;DHT22;18248;51.522;7.020;2023-06-19T16:46:17;32.80;60.80
31639;DHT22;18248;51.522;7.020;2023-06-19T16:49:16;32.80;60.30
31639;DHT22;18248;51.522;7.020;2023-06-19T16:52:15;32.60;60.80
31639;DHT22;18248;51.522;7.020;2023-06-19T16:55:14;32.50;60.00
31639;DHT22;18248;51.522;7.020;2023-06-19T16:58:13;32.20;61.40
31639;DHT22;18248;51.522;7.020;2023-06-19T17:01:12;32.10;61.50
31639;DHT22;18248;51.522;7.020;2023-06-19T17:04:10;32.20;61.50
31639;DHT22;18248;51.522;7.020;2023-06-19T17:07:09;32.30;61.20
31639;DHT22;18248;51.522;7.020;2023-06-19T17:10:08;32.20;60.00
31639;DHT22;18248;51.522;7.020;2023-06-19T17:13:07;32.20;61.20
31639;DHT22;18248;51.522;7.020;2023-06-19T17:16:06;32.00;61.50
31639;DHT22;18248;51.522;7.020;2023-06-19T17:19:04;31.80;61.90
31639;DHT22;18248;51.522;7.020;2023-06-19T17:22:04;31.70;62.70
31639;DHT22;18248;51.522;7.020;2023-06-19T17:25:02;31.70;62.90
31639;DHT22;18248;51.522;7.020;2023-06-19T17:28:01;31.70;61.80
31639;DHT22;18248;51.522;7.020;2023-06-19T17:30:59;31.70;63.20
31639;DHT22;18248;51.522;7.020;2023-06-19T17:33:58;31.60;62.90
31639;DHT22;18248;51.522;7.020;2023-06-19T17:36:57;31.60;62.50
31639;DHT22;18248;51.522;7.020;2023-06-19T17:39:55;31.50;64.40
31639;DHT22;18248;51.522;7.020;2023-06-19T17:42:54;31.60;64.10
31639;DHT22;18248;51.522;7.020;2023-06-19T17:45:52;31.60;62.50
31639;DHT22;18248;51.522;7.020;2023-06-19T17:48:51;31.50;62.90
31639;DHT22;18248;51.522;7.020;2023-06-19T17:51:54;31.60;63.80
31639;DHT22;18248;51.522;7.020;2023-06-19T17:54:53;31.50;64.50
31639;DHT22;18248;51.522;7.020;2023-06-19T17:57:53;31.40;63.80
31639;DHT22;18248;51.522;7.020;2023-06-19T18:00:51;31.20;63.80
31639;DHT22;18248;51.522;7.020;2023-06-19T18:03:50;31.10;64.40
31639;DHT22;18248;51.522;7.020;2023-06-19T18:06:50;31.10;65.40
31639;DHT22;18248;51.522;7.020;2023-06-19T18:09:49;31.00;64.20
31639;DHT22;18248;51.522;7.020;2023-06-19T18:12:47;31.00;65.50
31639;DHT22;18248;51.522;7.020;2023-06-19T18:15:46;30.90;65.00
31639;DHT22;18248;51.522;7.020;2023-06-19T18:18:45;30.90;66.30
31639;DHT22;18248;51.522;7.020;2023-06-19T18:21:43;30.80;65.60
31639;DHT22;18248;51.522;7.020;2023-06-19T18:24:43;30.80;66.00
31639;DHT22;18248;51.522;7.020;2023-06-19T18:27:42;30.70;66.00
31639;DHT22;18248;51.522;7.020;2023-06-19T18:30:42;30.60;66.10
31639;DHT22;18248;51.522;7.020;2023-06-19T18:33:40;30.50;66.00
31639;DHT22;18248;51.522;7.020;2023-06-19T18:36:39;30.50;66.80
31639;DHT22;18248;51.522;7.020;2023-06-19T18:39:37;30.50;66.70
31639;DHT22;18248;51.522;7.020;2023-06-19T18:42:36;30.40;66.90
31639;DHT22;18248;51.522;7.020;2023-06-19T18:45:35;30.30;67.00
31639;DHT22;18248;51.522;7.020;2023-06-19T18:48:36;30.30;68.50
31639;DHT22;18248;51.522;7.020;2023-06-19T18:51:34;30.20;67.60